sensor_id;sensor_type;location;lat;lon;timestamp;P1;durP1;ratioP1;P2;durP2;ratioP2
78854;SDS011;68206;59.956;30.234;2023-05-10T00:00:16;16.95;;;6.28;;
78854;SDS011;68206;59.956;30.234;2023-05-10T00:02:45;16.83;;;5.45;;
78854;SDS011;68206;59.956;30.234;2023-05-10T00:05:15;21.02;;;6.97;;
78854;SDS011;68206;59.956;30.234;2023-05-10T00:07:43;21.90;;;5.68;;
78854;SDS011;68206;59.956;30.234;2023-05-10T00:10:12;22.17;;;6.07;;
78854;SDS011;68206;59.956;30.234;2023-05-10T00:12:40;25.58;;;7.03;;
78854;SDS011;68206;59.956;30.234;2023-05-10T00:15:08;24.52;;;6.85;;
78854;SDS011;68206;59.956;30.234;2023-05-10T00:17:37;18.48;;;8.57;;
78854;SDS011;68206;59.956;30.234;2023-05-10T00:20:05;23.50;;;6.93;;
78854;SDS011;68206;59.956;30.234;2023-05-10T00:22:36;19.05;;;6.25;;
78854;SDS011;68206;59.956;30.234;2023-05-10T00:25:04;25.33;;;6.65;;
78854;SDS011;68206;59.956;30.234;2023-05-10T00:27:34;23.63;;;7.20;;
78854;SDS011;68206;59.956;30.234;2023-05-10T00:30:02;25.35;;;7.22;;
78854;SDS011;68206;59.956;30.234;2023-05-10T00:32:30;17.83;;;6.90;;
78854;SDS011;68206;59.956;30.234;2023-05-10T00:34:58;25.00;;;7.07;;
78854;SDS011;68206;59.956;30.234;2023-05-10T00:37:27;22.77;;;6.68;;
78854;SDS011;68206;59.956;30.234;2023-05-10T00:39:56;25.52;;;7.00;;
78854;SDS011;68206;59.956;30.234;2023-05-10T00:42:26;28.48;;;7.72;;
78854;SDS011;68206;59.956;30.234;2023-05-10T00:44:54;31.95;;;7.70;;
78854;SDS011;68206;59.956;30.234;2023-05-10T00:47:22;16.45;;;5.88;;
78854;SDS011;68206;59.956;30.234;2023-05-10T00:49:51;22.63;;;7.53;;
78854;SDS011;68206;59.956;30.234;2023-05-10T00:52:19;21.80;;;7.35;;
78854;SDS011;68206;59.956;30.234;2023-05-10T00:54:50;26.77;;;7.68;;
78854;SDS011;68206;59.956;30.234;2023-05-10T00:57:20;26.55;;;7.47;;
78854;SDS011;68206;59.956;30.234;2023-05-10T00:59:50;34.30;;;8.57;;
78854;SDS011;68206;59.956;30.234;2023-05-10T01:02:18;30.65;;;9.07;;
78854;SDS011;68206;59.956;30.234;2023-05-10T01:04:46;36.35;;;7.70;;
78854;SDS011;68206;59.956;30.234;2023-05-10T01:07:14;27.85;;;7.68;;
78854;SDS011;68206;59.956;30.234;2023-05-10T01:09:43;20.63;;;7.75;;
78854;SDS011;68206;59.956;30.234;2023-05-10T01:12:11;18.23;;;7.40;;
78854;SDS011;68206;59.956;30.234;2023-05-10T01:14:41;21.67;;;7.85;;
78854;SDS011;68206;59.956;30.234;2023-05-10T01:17:10;23.30;;;7.70;;
78854;SDS011;68206;59.956;30.234;2023-05-10T01:19:40;24.88;;;7.82;;
78854;SDS011;68206;59.956;30.234;2023-05-10T01:22:12;19.42;;;6.85;;
78854;SDS011;68206;59.956;30.234;2023-05-10T01:25:17;20.92;;;6.95;;
78854;SDS011;68206;59.956;30.234;2023-05-10T01:28:05;29.40;;;7.75;;
78854;SDS011;68206;59.956;30.234;2023-05-10T01:31:06;21.30;;;7.72;;
78854;SDS011;68206;59.956;30.234;2023-05-10T01:33:54;23.50;;;7.65;;
78854;SDS011;68206;59.956;30.234;2023-05-10T01:36:26;24.65;;;8.43;;
78854;SDS011;68206;59.956;30.234;2023-05-10T01:39:00;19.33;;;7.47;;
78854;SDS011;68206;59.956;30.234;2023-05-10T01:41:36;19.65;;;7.32;;
78854;SDS011;68206;59.956;30.234;2023-05-10T01:44:15;16.30;;;7.60;;
78854;SDS011;68206;59.956;30.234;2023-05-10T01:46:48;21.80;;;7.15;;
78854;SDS011;68206;59.956;30.234;2023-05-10T01:49:23;19.77;;;7.43;;
78854;SDS011;68206;59.956;30.234;2023-05-10T01:51:54;19.52;;;7.60;;
78854;SDS011;68206;59.956;30.234;2023-05-10T01:54:26;28.15;;;8.93;;
78854;SDS011;68206;59.956;30.234;2023-05-10T01:56:58;18.75;;;6.95;;
78854;SDS011;68206;59.956;30.234;2023-05-10T02:01:59;17.88;;;7.38;;
78854;SDS011;68206;59.956;30.234;2023-05-10T02:04:32;24.40;;;8.30;;
78854;SDS011;68206;59.956;30.234;2023-05-10T02:07:03;17.73;;;6.55;;
78854;SDS011;68206;59.956;30.234;2023-05-10T02:09:33;21.05;;;6.88;;
78854;SDS011;68206;59.956;30.234;2023-05-10T02:12:02;12.82;;;5.68;;
78854;SDS011;68206;59.956;30.234;2023-05-10T02:14:34;17.15;;;6.88;;
78854;SDS011;68206;59.956;30.234;2023-05-10T02:17:05;14.70;;;5.72;;
78854;SDS011;68206;59.956;30.234;2023-05-10T02:19:39;19.63;;;7.25;;
78854;SDS011;68206;59.956;30.234;2023-05-10T02:22:09;24.42;;;7.95;;
78854;SDS011;68206;59.956;30.234;2023-05-10T02:24:37;15.05;;;7.05;;
78854;SDS011;68206;59.956;30.234;2023-05-10T02:27:07;18.70;;;6.88;;
78854;SDS011;68206;59.956;30.234;2023-05-10T02:29:37;19.30;;;6.28;;
78854;SDS011;68206;59.956;30.234;2023-05-10T02:32:06;14.90;;;5.65;;
78854;SDS011;68206;59.956;30.234;2023-05-10T02:34:39;18.35;;;6.20;;
78854;SDS011;68206;59.956;30.234;2023-05-10T02:37:09;16.40;;;7.00;;
78854;SDS011;68206;59.956;30.234;2023-05-10T02:39:38;19.85;;;7.70;;
78854;SDS011;68206;59.956;30.234;2023-05-10T02:44:41;20.73;;;8.02;;
78854;SDS011;68206;59.956;30.234;2023-05-10T02:47:14;20.73;;;7.57;;
78854;SDS011;68206;59.956;30.234;2023-05-10T02:49:43;17.38;;;6.63;;
78854;SDS011;68206;59.956;30.234;2023-05-10T02:52:12;14.10;;;6.75;;
78854;SDS011;68206;59.956;30.234;2023-05-10T02:54:44;18.67;;;7.25;;
78854;SDS011;68206;59.956;30.234;2023-05-10T02:57:14;15.93;;;8.88;;
78854;SDS011;68206;59.956;30.234;2023-05-10T02:59:45;17.65;;;8.20;;
78854;SDS011;68206;59.956;30.234;2023-05-10T03:02:13;20.77;;;7.75;;
78854;SDS011;68206;59.956;30.234;2023-05-10T03:04:42;15.55;;;7.07;;
78854;SDS011;68206;59.956;30.234;2023-05-10T03:07:11;17.70;;;7.63;;
78854;SDS011;68206;59.956;30.234;2023-05-10T03:09:40;17.48;;;8.02;;
78854;SDS011;68206;59.956;30.234;2023-05-10T03:12:11;15.40;;;7.75;;
78854;SDS011;68206;59.956;30.234;2023-05-10T03:14:45;26.45;;;8.02;;
78854;SDS011;68206;59.956;30.234;2023-05-10T03:17:22;21.00;;;7.65;;
78854;SDS011;68206;59.956;30.234;2023-05-10T03:19:57;15.98;;;7.13;;
78854;SDS011;68206;59.956;30.234;2023-05-10T03:22:32;22.90;;;7.57;;
78854;SDS011;68206;59.956;30.234;2023-05-10T03:25:06;20.05;;;7.32;;
78854;SDS011;68206;59.956;30.234;2023-05-10T03:27:40;18.05;;;7.32;;
78854;SDS011;68206;59.956;30.234;2023-05-10T03:30:11;20.98;;;7.40;;
78854;SDS011;68206;59.956;30.234;2023-05-10T03:32:40;21.52;;;8.15;;
78854;SDS011;68206;59.956;30.234;2023-05-10T03:35:10;15.90;;;7.60;;
78854;SDS011;68206;59.956;30.234;2023-05-10T03:37:41;18.95;;;7.78;;
78854;SDS011;68206;59.956;30.234;2023-05-10T03:40:09;20.70;;;7.53;;
78854;SDS011;68206;59.956;30.234;2023-05-10T03:42:40;17.15;;;6.88;;
78854;SDS011;68206;59.956;30.234;2023-05-10T03:45:08;12.30;;;6.38;;
78854;SDS011;68206;59.956;30.234;2023-05-10T03:47:37;14.25;;;6.60;;
78854;SDS011;68206;59.956;30.234;2023-05-10T03:50:05;9.65;;;5.93;;
78854;SDS011;68206;59.956;30.234;2023-05-10T03:52:36;13.52;;;6.15;;
78854;SDS011;68206;59.956;30.234;2023-05-10T03:55:06;14.82;;;6.22;;
78854;SDS011;68206;59.956;30.234;2023-05-10T03:57:34;13.40;;;6.03;;
78854;SDS011;68206;59.956;30.234;2023-05-10T04:00:05;9.45;;;5.45;;
78854;SDS011;68206;59.956;30.234;2023-05-10T04:02:40;12.35;;;6.65;;
78854;SDS011;68206;59.956;30.234;2023-05-10T04:05:16;14.40;;;6.30;;
78854;SDS011;68206;59.956;30.234;2023-05-10T04:07:45;12.10;;;6.38;;
78854;SDS011;68206;59.956;30.234;2023-05-10T04:10:16;14.00;;;6.05;;
78854;SDS011;68206;59.956;30.234;2023-05-10T04:12:45;8.88;;;5.53;;
78854;SDS011;68206;59.956;30.234;2023-05-10T04:15:13;13.02;;;7.32;;
78854;SDS011;68206;59.956;30.234;2023-05-10T04:17:41;17.02;;;8.07;;
78854;SDS011;68206;59.956;30.234;2023-05-10T04:20:10;16.13;;;8.25;;
78854;SDS011;68206;59.956;30.234;2023-05-10T04:22:39;14.23;;;6.82;;
78854;SDS011;68206;59.956;30.234;2023-05-10T04:25:09;12.10;;;6.30;;
78854;SDS011;68206;59.956;30.234;2023-05-10T04:27:37;16.17;;;6.18;;
78854;SDS011;68206;59.956;30.234;2023-05-10T04:30:06;14.95;;;6.38;;
78854;SDS011;68206;59.956;30.234;2023-05-10T04:32:34;12.95;;;5.47;;
78854;SDS011;68206;59.956;30.234;2023-05-10T04:35:03;14.73;;;6.10;;
78854;SDS011;68206;59.956;30.234;2023-05-10T04:37:31;10.43;;;5.53;;
78854;SDS011;68206;59.956;30.234;2023-05-10T04:39:59;10.32;;;5.63;;
78854;SDS011;68206;59.956;30.234;2023-05-10T04:42:29;16.17;;;7.30;;
78854;SDS011;68206;59.956;30.234;2023-05-10T04:44:57;18.80;;;6.00;;
78854;SDS011;68206;59.956;30.234;2023-05-10T04:47:25;11.63;;;5.82;;
78854;SDS011;68206;59.956;30.234;2023-05-10T04:49:53;8.10;;;5.43;;
78854;SDS011;68206;59.956;30.234;2023-05-10T04:52:21;14.98;;;7.45;;
78854;SDS011;68206;59.956;30.234;2023-05-10T04:54:49;29.13;;;7.93;;
78854;SDS011;68206;59.956;30.234;2023-05-10T04:57:17;12.73;;;7.22;;
78854;SDS011;68206;59.956;30.234;2023-05-10T04:59:47;15.98;;;6.53;;
78854;SDS011;68206;59.956;30.234;2023-05-10T05:02:16;8.73;;;5.68;;
78854;SDS011;68206;59.956;30.234;2023-05-10T05:04:44;15.48;;;6.40;;
78854;SDS011;68206;59.956;30.234;2023-05-10T05:07:12;11.18;;;5.15;;
78854;SDS011;68206;59.956;30.234;2023-05-10T05:09:40;8.48;;;5.35;;
78854;SDS011;68206;59.956;30.234;2023-05-10T05:12:08;12.23;;;5.97;;
78854;SDS011;68206;59.956;30.234;2023-05-10T05:14:40;13.57;;;5.55;;
78854;SDS011;68206;59.956;30.234;2023-05-10T05:17:09;9.20;;;5.60;;
78854;SDS011;68206;59.956;30.234;2023-05-10T05:19:38;8.00;;;5.68;;
78854;SDS011;68206;59.956;30.234;2023-05-10T05:22:06;10.13;;;6.35;;
78854;SDS011;68206;59.956;30.234;2023-05-10T05:24:35;13.00;;;5.75;;
78854;SDS011;68206;59.956;30.234;2023-05-10T05:27:04;10.60;;;5.82;;
78854;SDS011;68206;59.956;30.234;2023-05-10T05:29:33;13.43;;;6.10;;
78854;SDS011;68206;59.956;30.234;2023-05-10T05:32:01;13.75;;;5.65;;
78854;SDS011;68206;59.956;30.234;2023-05-10T05:34:32;10.93;;;5.13;;
78854;SDS011;68206;59.956;30.234;2023-05-10T05:37:00;8.70;;;6.05;;
78854;SDS011;68206;59.956;30.234;2023-05-10T05:39:28;13.18;;;5.78;;
78854;SDS011;68206;59.956;30.234;2023-05-10T05:41:57;7.68;;;5.28;;
78854;SDS011;68206;59.956;30.234;2023-05-10T05:44:25;11.95;;;4.80;;
78854;SDS011;68206;59.956;30.234;2023-05-10T05:46:55;10.15;;;4.18;;
78854;SDS011;68206;59.956;30.234;2023-05-10T05:49:23;9.68;;;5.72;;
78854;SDS011;68206;59.956;30.234;2023-05-10T05:51:52;13.18;;;5.57;;
78854;SDS011;68206;59.956;30.234;2023-05-10T05:54:21;10.75;;;5.20;;
78854;SDS011;68206;59.956;30.234;2023-05-10T05:56:49;6.55;;;4.20;;
78854;SDS011;68206;59.956;30.234;2023-05-10T05:59:17;7.82;;;4.35;;
78854;SDS011;68206;59.956;30.234;2023-05-10T06:01:45;9.50;;;4.63;;
78854;SDS011;68206;59.956;30.234;2023-05-10T06:04:13;7.15;;;4.20;;
78854;SDS011;68206;59.956;30.234;2023-05-10T06:06:41;12.32;;;4.57;;
78854;SDS011;68206;59.956;30.234;2023-05-10T06:09:11;9.35;;;3.90;;
78854;SDS011;68206;59.956;30.234;2023-05-10T06:11:39;7.30;;;3.78;;
78854;SDS011;68206;59.956;30.234;2023-05-10T06:14:08;6.30;;;4.10;;
78854;SDS011;68206;59.956;30.234;2023-05-10T06:16:36;8.93;;;3.47;;
78854;SDS011;68206;59.956;30.234;2023-05-10T06:19:04;8.82;;;4.45;;
78854;SDS011;68206;59.956;30.234;2023-05-10T06:21:32;6.82;;;3.65;;
78854;SDS011;68206;59.956;30.234;2023-05-10T06:24:00;9.52;;;4.00;;
78854;SDS011;68206;59.956;30.234;2023-05-10T06:26:30;16.63;;;4.50;;
78854;SDS011;68206;59.956;30.234;2023-05-10T06:28:59;12.18;;;3.70;;
78854;SDS011;68206;59.956;30.234;2023-05-10T06:31:27;8.55;;;3.90;;
78854;SDS011;68206;59.956;30.234;2023-05-10T06:33:55;10.98;;;3.75;;
78854;SDS011;68206;59.956;30.234;2023-05-10T06:36:25;8.88;;;4.03;;
78854;SDS011;68206;59.956;30.234;2023-05-10T06:38:53;7.63;;;4.20;;
78854;SDS011;68206;59.956;30.234;2023-05-10T06:41:22;10.93;;;3.72;;
78854;SDS011;68206;59.956;30.234;2023-05-10T06:43:51;7.95;;;3.58;;
78854;SDS011;68206;59.956;30.234;2023-05-10T06:46:19;6.72;;;3.60;;
78854;SDS011;68206;59.956;30.234;2023-05-10T06:48:48;6.80;;;3.45;;
78854;SDS011;68206;59.956;30.234;2023-05-10T06:51:16;7.22;;;4.00;;
78854;SDS011;68206;59.956;30.234;2023-05-10T06:53:44;9.02;;;3.92;;
78854;SDS011;68206;59.956;30.234;2023-05-10T06:56:12;6.18;;;3.42;;
78854;SDS011;68206;59.956;30.234;2023-05-10T06:58:40;20.88;;;4.18;;
78854;SDS011;68206;59.956;30.234;2023-05-10T07:01:09;7.32;;;4.15;;
78854;SDS011;68206;59.956;30.234;2023-05-10T07:03:38;8.82;;;3.42;;
78854;SDS011;68206;59.956;30.234;2023-05-10T07:06:06;6.65;;;3.42;;
78854;SDS011;68206;59.956;30.234;2023-05-10T07:08:48;8.02;;;3.88;;
78854;SDS011;68206;59.956;30.234;2023-05-10T07:11:16;7.65;;;3.13;;
78854;SDS011;68206;59.956;30.234;2023-05-10T07:13:44;4.63;;;3.13;;
78854;SDS011;68206;59.956;30.234;2023-05-10T07:16:14;5.05;;;3.17;;
78854;SDS011;68206;59.956;30.234;2023-05-10T07:18:42;11.57;;;3.50;;
78854;SDS011;68206;59.956;30.234;2023-05-10T07:21:10;7.72;;;3.50;;
78854;SDS011;68206;59.956;30.234;2023-05-10T07:23:38;7.25;;;3.25;;
78854;SDS011;68206;59.956;30.234;2023-05-10T07:26:09;8.15;;;3.28;;
78854;SDS011;68206;59.956;30.234;2023-05-10T07:28:38;6.57;;;3.20;;
78854;SDS011;68206;59.956;30.234;2023-05-10T07:31:06;9.32;;;3.35;;
78854;SDS011;68206;59.956;30.234;2023-05-10T07:33:35;5.32;;;3.50;;
78854;SDS011;68206;59.956;30.234;2023-05-10T07:36:04;5.32;;;3.00;;
78854;SDS011;68206;59.956;30.234;2023-05-10T07:38:32;7.20;;;3.50;;
78854;SDS011;68206;59.956;30.234;2023-05-10T07:41:00;8.18;;;3.30;;
78854;SDS011;68206;59.956;30.234;2023-05-10T07:43:28;8.13;;;3.35;;
78854;SDS011;68206;59.956;30.234;2023-05-10T07:45:57;6.05;;;3.10;;
78854;SDS011;68206;59.956;30.234;2023-05-10T07:48:27;5.68;;;2.92;;
78854;SDS011;68206;59.956;30.234;2023-05-10T07:50:56;5.97;;;3.15;;
78854;SDS011;68206;59.956;30.234;2023-05-10T07:53:25;13.20;;;3.45;;
78854;SDS011;68206;59.956;30.234;2023-05-10T07:55:54;7.57;;;3.58;;
78854;SDS011;68206;59.956;30.234;2023-05-10T07:58:26;6.60;;;3.20;;
78854;SDS011;68206;59.956;30.234;2023-05-10T08:00:54;7.95;;;3.28;;
78854;SDS011;68206;59.956;30.234;2023-05-10T08:03:23;9.30;;;3.20;;
78854;SDS011;68206;59.956;30.234;2023-05-10T08:05:51;9.20;;;3.50;;
78854;SDS011;68206;59.956;30.234;2023-05-10T08:08:20;5.75;;;2.92;;
78854;SDS011;68206;59.956;30.234;2023-05-10T08:10:50;6.47;;;3.40;;
78854;SDS011;68206;59.956;30.234;2023-05-10T08:13:18;7.00;;;3.00;;
78854;SDS011;68206;59.956;30.234;2023-05-10T08:15:46;11.25;;;3.33;;
78854;SDS011;68206;59.956;30.234;2023-05-10T08:18:14;6.97;;;3.13;;
78854;SDS011;68206;59.956;30.234;2023-05-10T08:20:44;9.07;;;3.28;;
78854;SDS011;68206;59.956;30.234;2023-05-10T08:23:12;5.05;;;2.90;;
78854;SDS011;68206;59.956;30.234;2023-05-10T08:25:41;6.53;;;3.10;;
78854;SDS011;68206;59.956;30.234;2023-05-10T08:28:09;10.00;;;2.78;;
78854;SDS011;68206;59.956;30.234;2023-05-10T08:30:37;8.48;;;3.38;;
78854;SDS011;68206;59.956;30.234;2023-05-10T08:33:06;4.50;;;3.13;;
78854;SDS011;68206;59.956;30.234;2023-05-10T08:35:34;3.75;;;2.67;;
78854;SDS011;68206;59.956;30.234;2023-05-10T08:38:02;10.27;;;3.45;;
78854;SDS011;68206;59.956;30.234;2023-05-10T08:40:30;11.65;;;3.35;;
78854;SDS011;68206;59.956;30.234;2023-05-10T08:43:01;8.93;;;3.33;;
78854;SDS011;68206;59.956;30.234;2023-05-10T08:45:34;7.40;;;3.20;;
78854;SDS011;68206;59.956;30.234;2023-05-10T08:48:06;10.52;;;3.47;;
78854;SDS011;68206;59.956;30.234;2023-05-10T08:50:36;6.35;;;2.88;;
78854;SDS011;68206;59.956;30.234;2023-05-10T08:53:05;5.63;;;3.10;;
78854;SDS011;68206;59.956;30.234;2023-05-10T08:58:06;10.40;;;3.05;;
78854;SDS011;68206;59.956;30.234;2023-05-10T09:00:35;5.68;;;3.08;;
78854;SDS011;68206;59.956;30.234;2023-05-10T09:03:05;5.35;;;2.78;;
78854;SDS011;68206;59.956;30.234;2023-05-10T09:05:33;6.72;;;3.03;;
78854;SDS011;68206;59.956;30.234;2023-05-10T09:08:03;4.97;;;2.83;;
78854;SDS011;68206;59.956;30.234;2023-05-10T09:10:32;5.60;;;2.78;;
78854;SDS011;68206;59.956;30.234;2023-05-10T09:13:00;5.78;;;2.50;;
78854;SDS011;68206;59.956;30.234;2023-05-10T09:15:31;6.68;;;2.58;;
78854;SDS011;68206;59.956;30.234;2023-05-10T09:17:59;7.47;;;2.75;;
78854;SDS011;68206;59.956;30.234;2023-05-10T09:20:28;6.00;;;2.85;;
78854;SDS011;68206;59.956;30.234;2023-05-10T09:22:57;14.07;;;2.90;;
78854;SDS011;68206;59.956;30.234;2023-05-10T09:25:25;6.28;;;3.00;;
78854;SDS011;68206;59.956;30.234;2023-05-10T09:27:53;6.57;;;2.90;;
78854;SDS011;68206;59.956;30.234;2023-05-10T09:30:25;5.50;;;2.80;;
78854;SDS011;68206;59.956;30.234;2023-05-10T09:32:56;5.65;;;2.80;;
78854;SDS011;68206;59.956;30.234;2023-05-10T09:35:27;3.53;;;2.35;;
78854;SDS011;68206;59.956;30.234;2023-05-10T09:37:58;5.65;;;2.90;;
78854;SDS011;68206;59.956;30.234;2023-05-10T09:40:28;6.15;;;2.42;;
78854;SDS011;68206;59.956;30.234;2023-05-10T09:42:58;3.92;;;2.22;;
78854;SDS011;68206;59.956;30.234;2023-05-10T09:45:28;6.85;;;2.88;;
78854;SDS011;68206;59.956;30.234;2023-05-10T09:47:59;5.68;;;2.30;;
78854;SDS011;68206;59.956;30.234;2023-05-10T09:50:30;5.30;;;2.50;;
78854;SDS011;68206;59.956;30.234;2023-05-10T09:52:58;4.38;;;2.50;;
78854;SDS011;68206;59.956;30.234;2023-05-10T09:55:37;7.15;;;2.60;;
78854;SDS011;68206;59.956;30.234;2023-05-10T09:58:08;4.32;;;2.38;;
78854;SDS011;68206;59.956;30.234;2023-05-10T10:00:38;7.00;;;2.80;;
78854;SDS011;68206;59.956;30.234;2023-05-10T10:03:13;4.82;;;2.78;;
78854;SDS011;68206;59.956;30.234;2023-05-10T10:05:43;6.20;;;2.60;;
78854;SDS011;68206;59.956;30.234;2023-05-10T10:08:12;7.80;;;2.97;;
78854;SDS011;68206;59.956;30.234;2023-05-10T10:10:41;9.23;;;3.05;;
78854;SDS011;68206;59.956;30.234;2023-05-10T10:13:12;6.80;;;3.25;;
78854;SDS011;68206;59.956;30.234;2023-05-10T10:15:40;4.85;;;2.50;;
78854;SDS011;68206;59.956;30.234;2023-05-10T10:18:13;6.47;;;2.60;;
78854;SDS011;68206;59.956;30.234;2023-05-10T10:20:42;13.63;;;2.97;;
78854;SDS011;68206;59.956;30.234;2023-05-10T10:23:10;9.55;;;2.67;;
78854;SDS011;68206;59.956;30.234;2023-05-10T10:25:42;8.88;;;3.13;;
78854;SDS011;68206;59.956;30.234;2023-05-10T10:28:14;5.18;;;2.85;;
78854;SDS011;68206;59.956;30.234;2023-05-10T10:30:53;4.68;;;2.13;;
78854;SDS011;68206;59.956;30.234;2023-05-10T10:36:19;7.05;;;3.35;;
78854;SDS011;68206;59.956;30.234;2023-05-10T10:38:54;5.38;;;2.60;;
78854;SDS011;68206;59.956;30.234;2023-05-10T10:41:30;7.28;;;3.00;;
78854;SDS011;68206;59.956;30.234;2023-05-10T10:47:04;3.47;;;2.47;;
78854;SDS011;68206;59.956;30.234;2023-05-10T10:49:48;5.47;;;2.40;;
78854;SDS011;68206;59.956;30.234;2023-05-10T10:52:22;8.02;;;3.05;;
78854;SDS011;68206;59.956;30.234;2023-05-10T10:54:59;5.70;;;2.28;;
78854;SDS011;68206;59.956;30.234;2023-05-10T10:57:42;4.68;;;2.53;;
78854;SDS011;68206;59.956;30.234;2023-05-10T11:00:28;4.10;;;2.30;;
78854;SDS011;68206;59.956;30.234;2023-05-10T11:02:58;17.92;;;3.03;;
78854;SDS011;68206;59.956;30.234;2023-05-10T11:08:17;5.82;;;2.60;;
78854;SDS011;68206;59.956;30.234;2023-05-10T11:10:49;3.08;;;2.20;;
78854;SDS011;68206;59.956;30.234;2023-05-10T11:13:34;3.88;;;2.38;;
78854;SDS011;68206;59.956;30.234;2023-05-10T11:18:49;4.18;;;2.88;;
78854;SDS011;68206;59.956;30.234;2023-05-10T11:21:21;6.15;;;2.35;;
78854;SDS011;68206;59.956;30.234;2023-05-10T11:23:50;3.65;;;2.33;;
78854;SDS011;68206;59.956;30.234;2023-05-10T11:28:53;3.13;;;2.22;;
78854;SDS011;68206;59.956;30.234;2023-05-10T11:31:22;6.40;;;2.63;;
78854;SDS011;68206;59.956;30.234;2023-05-10T11:33:53;6.82;;;2.60;;
78854;SDS011;68206;59.956;30.234;2023-05-10T11:36:26;5.40;;;2.28;;
78854;SDS011;68206;59.956;30.234;2023-05-10T11:38:55;3.80;;;2.08;;
78854;SDS011;68206;59.956;30.234;2023-05-10T11:41:25;4.82;;;2.70;;
78854;SDS011;68206;59.956;30.234;2023-05-10T11:43:56;5.57;;;2.42;;
78854;SDS011;68206;59.956;30.234;2023-05-10T11:46:26;5.88;;;2.60;;
78854;SDS011;68206;59.956;30.234;2023-05-10T11:48:57;3.75;;;2.28;;
78854;SDS011;68206;59.956;30.234;2023-05-10T11:51:32;5.47;;;2.53;;
78854;SDS011;68206;59.956;30.234;2023-05-10T11:54:05;6.50;;;2.55;;
78854;SDS011;68206;59.956;30.234;2023-05-10T11:56:36;6.75;;;2.20;;
78854;SDS011;68206;59.956;30.234;2023-05-10T11:59:04;6.30;;;2.50;;
78854;SDS011;68206;59.956;30.234;2023-05-10T12:01:33;5.07;;;1.95;;
78854;SDS011;68206;59.956;30.234;2023-05-10T12:04:01;6.53;;;2.47;;
78854;SDS011;68206;59.956;30.234;2023-05-10T12:06:31;10.75;;;2.50;;
78854;SDS011;68206;59.956;30.234;2023-05-10T12:09:06;6.63;;;2.55;;
78854;SDS011;68206;59.956;30.234;2023-05-10T12:11:37;8.65;;;2.50;;
78854;SDS011;68206;59.956;30.234;2023-05-10T12:14:10;6.40;;;2.42;;
78854;SDS011;68206;59.956;30.234;2023-05-10T12:16:38;4.20;;;2.60;;
78854;SDS011;68206;59.956;30.234;2023-05-10T12:19:07;3.15;;;2.20;;
78854;SDS011;68206;59.956;30.234;2023-05-10T12:21:36;4.80;;;2.70;;
78854;SDS011;68206;59.956;30.234;2023-05-10T12:24:06;5.85;;;2.60;;
78854;SDS011;68206;59.956;30.234;2023-05-10T12:26:35;7.53;;;2.60;;
78854;SDS011;68206;59.956;30.234;2023-05-10T12:29:13;6.93;;;2.90;;
78854;SDS011;68206;59.956;30.234;2023-05-10T12:31:50;9.02;;;3.15;;
78854;SDS011;68206;59.956;30.234;2023-05-10T12:34:23;4.70;;;2.60;;
78854;SDS011;68206;59.956;30.234;2023-05-10T12:36:54;6.47;;;2.42;;
78854;SDS011;68206;59.956;30.234;2023-05-10T12:39:23;6.85;;;2.35;;
78854;SDS011;68206;59.956;30.234;2023-05-10T12:41:51;6.82;;;2.53;;
78854;SDS011;68206;59.956;30.234;2023-05-10T12:44:19;4.60;;;2.20;;
78854;SDS011;68206;59.956;30.234;2023-05-10T12:46:47;6.90;;;2.63;;
78854;SDS011;68206;59.956;30.234;2023-05-10T12:49:16;3.65;;;2.22;;
78854;SDS011;68206;59.956;30.234;2023-05-10T12:51:46;6.50;;;2.47;;
78854;SDS011;68206;59.956;30.234;2023-05-10T12:54:15;7.25;;;2.40;;
78854;SDS011;68206;59.956;30.234;2023-05-10T12:56:43;5.28;;;2.30;;
78854;SDS011;68206;59.956;30.234;2023-05-10T12:59:12;3.40;;;2.22;;
78854;SDS011;68206;59.956;30.234;2023-05-10T13:01:40;6.80;;;2.22;;
78854;SDS011;68206;59.956;30.234;2023-05-10T13:04:08;7.05;;;3.05;;
78854;SDS011;68206;59.956;30.234;2023-05-10T13:06:36;13.02;;;2.47;;
78854;SDS011;68206;59.956;30.234;2023-05-10T13:09:04;4.47;;;2.35;;
78854;SDS011;68206;59.956;30.234;2023-05-10T13:11:34;7.45;;;2.50;;
78854;SDS011;68206;59.956;30.234;2023-05-10T13:14:03;12.52;;;2.85;;
78854;SDS011;68206;59.956;30.234;2023-05-10T13:16:31;3.28;;;2.05;;
78854;SDS011;68206;59.956;30.234;2023-05-10T13:18:59;5.07;;;2.33;;
78854;SDS011;68206;59.956;30.234;2023-05-10T13:21:27;7.47;;;2.22;;
78854;SDS011;68206;59.956;30.234;2023-05-10T13:23:55;7.75;;;2.42;;
78854;SDS011;68206;59.956;30.234;2023-05-10T13:26:24;6.90;;;2.15;;
78854;SDS011;68206;59.956;30.234;2023-05-10T13:28:54;4.38;;;2.33;;
78854;SDS011;68206;59.956;30.234;2023-05-10T13:31:22;4.00;;;2.58;;
78854;SDS011;68206;59.956;30.234;2023-05-10T13:33:50;9.57;;;2.00;;
78854;SDS011;68206;59.956;30.234;2023-05-10T13:36:18;9.45;;;2.10;;
78854;SDS011;68206;59.956;30.234;2023-05-10T13:38:47;6.85;;;2.03;;
78854;SDS011;68206;59.956;30.234;2023-05-10T13:41:15;9.80;;;2.65;;
78854;SDS011;68206;59.956;30.234;2023-05-10T13:43:43;4.95;;;1.92;;
78854;SDS011;68206;59.956;30.234;2023-05-10T13:46:13;7.10;;;2.05;;
78854;SDS011;68206;59.956;30.234;2023-05-10T13:48:41;4.00;;;1.70;;
78854;SDS011;68206;59.956;30.234;2023-05-10T13:51:09;3.47;;;2.00;;
78854;SDS011;68206;59.956;30.234;2023-05-10T13:53:37;5.72;;;2.40;;
78854;SDS011;68206;59.956;30.234;2023-05-10T13:59:05;7.85;;;2.28;;
78854;SDS011;68206;59.956;30.234;2023-05-10T14:01:35;6.35;;;2.40;;
78854;SDS011;68206;59.956;30.234;2023-05-10T14:04:04;7.85;;;2.20;;
78854;SDS011;68206;59.956;30.234;2023-05-10T14:06:33;8.80;;;2.50;;
78854;SDS011;68206;59.956;30.234;2023-05-10T14:09:01;4.10;;;2.50;;
78854;SDS011;68206;59.956;30.234;2023-05-10T14:11:30;4.25;;;2.20;;
78854;SDS011;68206;59.956;30.234;2023-05-10T14:13:59;11.02;;;2.00;;
78854;SDS011;68206;59.956;30.234;2023-05-10T14:16:27;4.13;;;2.08;;
78854;SDS011;68206;59.956;30.234;2023-05-10T14:18:56;9.90;;;3.15;;
78854;SDS011;68206;59.956;30.234;2023-05-10T14:21:24;6.03;;;2.53;;
78854;SDS011;68206;59.956;30.234;2023-05-10T14:23:53;8.10;;;2.33;;
78854;SDS011;68206;59.956;30.234;2023-05-10T14:26:22;5.35;;;2.30;;
78854;SDS011;68206;59.956;30.234;2023-05-10T14:28:50;4.75;;;2.10;;
78854;SDS011;68206;59.956;30.234;2023-05-10T14:31:18;8.65;;;2.55;;
78854;SDS011;68206;59.956;30.234;2023-05-10T14:33:47;7.20;;;2.28;;
78854;SDS011;68206;59.956;30.234;2023-05-10T14:36:16;6.75;;;2.47;;
78854;SDS011;68206;59.956;30.234;2023-05-10T14:38:45;4.00;;;2.20;;
78854;SDS011;68206;59.956;30.234;2023-05-10T14:41:13;5.68;;;2.42;;
78854;SDS011;68206;59.956;30.234;2023-05-10T14:43:41;11.02;;;2.58;;
78854;SDS011;68206;59.956;30.234;2023-05-10T14:46:09;3.63;;;2.30;;
78854;SDS011;68206;59.956;30.234;2023-05-10T14:48:38;5.43;;;2.45;;
78854;SDS011;68206;59.956;30.234;2023-05-10T14:51:06;9.13;;;2.30;;
78854;SDS011;68206;59.956;30.234;2023-05-10T14:53:38;3.80;;;2.30;;
78854;SDS011;68206;59.956;30.234;2023-05-10T14:56:07;8.52;;;2.28;;
78854;SDS011;68206;59.956;30.234;2023-05-10T14:58:35;7.75;;;2.30;;
78854;SDS011;68206;59.956;30.234;2023-05-10T15:01:03;5.85;;;2.63;;
78854;SDS011;68206;59.956;30.234;2023-05-10T15:03:32;3.40;;;2.17;;
78854;SDS011;68206;59.956;30.234;2023-05-10T15:06:01;5.60;;;2.25;;
78854;SDS011;68206;59.956;30.234;2023-05-10T15:08:29;6.70;;;2.03;;